Time;durP1;ratioP1;P1;durP2;ratioP2;P2;SDS_P1;SDS_P2;PMS_P1;PMS_P2;Temp;Humidity;BMP_temperature;BMP_pressure;BME280_temperature;BME280_humidity;BME280_pressure;Samples;Min_cycle;Max_cycle;Signal;HPM_P1;HPM_P2
2023/01/26 00:00:04;;;;;;;21.92;14.48;;;2.90;99.90;;;;;;5088875;28;20397;-78
2023/01/26 00:02:32;;;;;;;22.67;13.32;;;2.90;1.00;;;;;;5082227;28;20197;-75
2023/01/26 00:05:00;;;;;;;22.55;12.23;;;2.80;99.90;;;;;;5090942;28;20214;-77
2023/01/26 00:07:29;;;;;;;21.35;12.85;;;2.80;99.90;;;;;;5078976;28;20521;-77
2023/01/26 00:09:58;;;;;;;23.05;14.15;;;3.00;1.00;;;;;;5093359;28;20204;-77
2023/01/26 00:12:27;;;;;;;23.55;13.07;;;2.90;27.80;;;;;;5091949;28;20718;-77
2023/01/26 00:14:55;;;;;;;19.63;12.10;;;2.80;1.00;;;;;;5093322;28;20588;-76
2023/01/26 00:17:26;;;;;;;20.13;12.52;;;2.90;98.70;;;;;;5092874;28;20190;-78
2023/01/26 00:19:56;;;;;;;27.95;13.43;;;2.90;1.00;;;;;;5097986;28;20240;-77
2023/01/26 00:22:26;;;;;;;20.23;12.30;;;2.80;99.90;;;;;;5094608;28;20217;-78
2023/01/26 00:24:54;;;;;;;20.70;12.45;;;2.70;99.90;;;;;;5092857;28;20222;-77
2023/01/26 00:27:23;;;;;;;21.90;13.48;;;2.70;61.70;;;;;;5095593;28;20208;-76
2023/01/26 00:29:51;;;;;;;19.55;11.63;;;2.70;1.00;;;;;;5097364;28;20207;-77
2023/01/26 00:32:20;;;;;;;22.15;13.02;;;2.70;1.00;;;;;;5095935;28;20205;-78
2023/01/26 00:34:48;;;;;;;19.10;12.60;;;2.70;99.90;;;;;;5091864;28;20228;-77
2023/01/26 00:37:17;;;;;;;20.02;12.13;;;2.80;1.00;;;;;;5093698;28;20229;-77
2023/01/26 00:39:45;;;;;;;19.65;13.45;;;2.80;1.00;;;;;;5074576;28;20323;-77
2023/01/26 00:42:14;;;;;;;19.42;11.55;;;2.80;1.00;;;;;;5089771;28;20200;-79
2023/01/26 00:44:44;;;;;;;20.45;11.35;;;2.70;99.90;;;;;;5074663;28;20359;-78
2023/01/26 00:47:13;;;;;;;20.40;13.05;;;2.70;1.00;;;;;;5092888;28;20572;-76
2023/01/26 00:49:42;;;;;;;19.15;12.10;;;2.60;99.90;;;;;;5094734;28;20197;-77
2023/01/26 00:52:10;;;;;;;18.75;13.15;;;2.60;99.60;;;;;;5086602;28;20213;-77
2023/01/26 00:54:39;;;;;;;16.45;11.40;;;2.60;1.00;;;;;;5094979;28;20235;-78
2023/01/26 00:57:07;;;;;;;16.58;11.05;;;2.60;99.90;;;;;;5100956;28;20714;-76
2023/01/26 00:59:36;;;;;;;16.20;10.80;;;2.60;99.90;;;;;;5094177;28;20246;-76
2023/01/26 01:02:05;;;;;;;19.40;11.15;;;2.60;99.90;;;;;;5094880;28;20217;-77
2023/01/26 01:04:33;;;;;;;19.58;10.52;;;2.70;34.90;;;;;;5075878;28;20297;-77
2023/01/26 01:07:02;;;;;;;18.17;11.93;;;2.50;95.70;;;;;;5090652;28;20200;-76
2023/01/26 01:09:30;;;;;;;18.30;12.15;;;2.70;99.90;;;;;;5097401;28;20285;-76
2023/01/26 01:11:58;;;;;;;17.98;10.88;;;2.70;99.90;;;;;;5095366;28;20671;-77
2023/01/26 01:14:26;;;;;;;18.25;11.30;;;2.60;1.00;;;;;;5096426;28;20220;-76
2023/01/26 01:16:54;;;;;;;18.13;11.43;;;2.70;99.90;;;;;;5095420;28;20205;-76
2023/01/26 01:19:24;;;;;;;18.65;10.93;;;2.60;1.00;;;;;;5097176;28;20193;-77
2023/01/26 01:21:52;;;;;;;16.63;10.60;;;2.40;1.00;;;;;;5095821;28;20204;-77
2023/01/26 01:24:20;;;;;;;18.90;11.32;;;2.50;1.00;;;;;;5098255;28;20219;-77
2023/01/26 01:26:49;;;;;;;22.50;13.38;;;2.50;99.90;;;;;;5089100;28;20199;-77
2023/01/26 01:29:17;;;;;;;16.20;11.35;;;2.60;99.90;;;;;;5099169;28;20747;-77
2023/01/26 01:31:45;;;;;;;18.05;10.80;;;2.80;99.90;;;;;;5101244;27;20197;-78
2023/01/26 01:34:13;;;;;;;16.33;11.13;;;2.70;1.00;;;;;;5095238;28;20295;-77
2023/01/26 01:36:43;;;;;;;21.73;11.27;;;2.50;99.90;;;;;;5094407;28;20220;-76
2023/01/26 01:39:11;;;;;;;18.27;11.55;;;2.60;26.60;;;;;;5090195;28;20202;-77
2023/01/26 01:41:39;;;;;;;19.70;11.02;;;2.60;99.90;;;;;;5095049;28;20213;-77
2023/01/26 01:44:19;;;;;;;19.55;12.02;;;2.60;99.90;;;;;;5099006;28;20223;-76
2023/01/26 01:46:53;;;;;;;16.45;11.68;;;2.80;1.00;;;;;;5098893;28;20254;-77
2023/01/26 01:49:26;;;;;;;15.82;10.88;;;2.80;1.00;;;;;;5093946;28;20196;-76
2023/01/26 01:51:59;;;;;;;18.65;11.35;;;2.80;99.90;;;;;;5097811;28;20189;-78
2023/01/26 01:54:32;;;;;;;16.70;11.13;;;2.70;1.00;;;;;;5091902;28;20774;-77
2023/01/26 01:57:04;;;;;;;18.88;11.38;;;2.90;1.00;;;;;;5096704;28;20213;-77
2023/01/26 01:59:33;;;;;;;20.75;12.55;;;2.70;99.90;;;;;;5102681;28;20198;-79
2023/01/26 02:02:01;;;;;;;17.63;10.98;;;2.60;99.90;;;;;;5102019;28;20321;-78
2023/01/26 02:04:29;;;;;;;23.17;12.25;;;2.70;1.00;;;;;;5100485;28;20245;-77
2023/01/26 02:07:01;;;;;;;18.45;11.95;;;2.70;21.90;;;;;;5102207;28;20678;-79
2023/01/26 02:12:23;;;;;;;20.45;11.50;;;2.50;99.90;;;;;;5099973;28;20356;-78
2023/01/26 02:14:52;;;;;;;18.02;10.93;;;2.60;1.00;;;;;;5099996;28;20219;-78
2023/01/26 02:17:21;;;;;;;18.45;11.88;;;2.60;99.90;;;;;;5085705;28;20230;-78
2023/01/26 02:19:57;;;;;;;20.90;10.93;;;2.60;1.00;;;;;;5095506;28;20255;-78
2023/01/26 02:22:34;;;;;;;18.05;11.60;;;2.60;99.90;;;;;;5102676;28;20199;-79
2023/01/26 02:25:07;;;;;;;15.95;10.25;;;2.60;1.00;;;;;;5096482;28;20251;-78
2023/01/26 02:27:37;;;;;;;20.17;11.05;;;2.60;1.00;;;;;;5086695;28;29027;-78
2023/01/26 02:30:07;;;;;;;21.25;10.95;;;2.60;99.90;;;;;;5099160;28;20194;-77
2023/01/26 02:32:36;;;;;;;15.25;10.43;;;2.80;1.00;;;;;;5098101;28;20703;-78
2023/01/26 02:35:04;;;;;;;18.58;11.02;;;2.80;1.00;;;;;;5100524;28;20225;-79
2023/01/26 02:37:32;;;;;;;18.02;11.40;;;2.70;99.90;;;;;;5098133;28;20680;-78
2023/01/26 02:40:05;;;;;;;16.50;11.60;;;2.70;1.00;;;;;;5097998;28;20209;-79
2023/01/26 02:42:38;;;;;;;15.02;10.52;;;2.60;99.90;;;;;;5104578;27;20782;-77
2023/01/26 02:45:09;;;;;;;16.33;10.40;;;2.60;1.00;;;;;;5093627;28;20274;-77
2023/01/26 02:47:39;;;;;;;16.75;11.10;;;2.50;99.90;;;;;;5099392;28;20209;-77
2023/01/26 02:50:07;;;;;;;17.50;11.18;;;2.60;99.90;;;;;;5103234;28;20198;-78
2023/01/26 02:52:35;;;;;;;20.00;11.98;;;2.50;99.90;;;;;;5100511;28;20210;-78
2023/01/26 02:55:24;;;;;;;17.63;12.02;;;2.50;99.90;;;;;;5098974;28;20269;-78
2023/01/26 02:57:53;;;;;;;19.80;12.00;;;2.50;12.90;;;;;;5099428;27;20693;-78
2023/01/26 03:00:25;;;;;;;15.70;10.57;;;2.60;1.00;;;;;;5100377;28;20202;-78
2023/01/26 03:02:57;;;;;;;16.95;10.80;;;2.50;1.00;;;;;;5096456;28;20299;-77
2023/01/26 03:05:25;;;;;;;19.45;10.40;;;2.50;1.00;;;;;;5102321;28;20224;-78
2023/01/26 03:07:54;;;;;;;19.65;12.25;;;2.60;99.90;;;;;;5099750;28;20196;-78
2023/01/26 03:10:23;;;;;;;20.73;11.45;;;2.60;99.90;;;;;;5099934;28;20204;-78
2023/01/26 03:12:51;;;;;;;17.52;11.50;;;2.60;99.90;;;;;;5098029;28;20201;-79
2023/01/26 03:15:41;;;;;;;17.45;9.38;;;2.60;1.00;;;;;;5094174;28;20230;-76
2023/01/26 03:27:25;;;;;;;15.45;9.70;;;2.60;1.00;;;;;;5098262;28;20277;-77
2023/01/26 03:29:25;;;;;;;21.50;10.77;;;2.70;99.90;;;;;;5100407;28;20814;-78
2023/01/26 03:31:53;;;;;;;20.10;12.23;;;2.80;28.00;;;;;;5097477;28;20598;-78
2023/01/26 03:34:23;;;;;;;18.30;11.63;;;2.70;1.00;;;;;;5094864;28;20215;-78
2023/01/26 03:36:51;;;;;;;20.65;11.10;;;2.80;1.00;;;;;;5098214;28;20556;-78
2023/01/26 03:56:17;;;;;;;21.95;11.43;;;2.60;1.00;;;;;;5094537;28;20288;-77
2023/01/26 03:58:45;;;;;;;17.38;10.32;;;2.60;99.90;;;;;;5088443;28;20679;-77
2023/01/26 04:01:18;;;;;;;16.30;10.05;;;2.70;99.90;;;;;;5094966;28;20252;-78
2023/01/26 04:09:22;;;;;;;20.95;10.60;;;2.70;99.90;;;;;;5095881;28;20731;-78
2023/01/26 04:11:51;;;;;;;15.95;10.07;;;2.80;1.00;;;;;;5098022;28;20193;-78
2023/01/26 04:22:52;;;;;;;20.92;10.63;;;2.70;39.60;;;;;;5094581;28;20239;-76
2023/01/26 04:25:21;;;;;;;16.08;10.25;;;2.60;99.90;;;;;;5099213;28;20224;-76
2023/01/26 04:27:49;;;;;;;17.25;10.73;;;2.60;99.90;;;;;;5094047;28;20207;-75
2023/01/26 04:30:18;;;;;;;14.75;10.10;;;2.60;99.10;;;;;;5092757;28;20669;-77
2023/01/26 04:32:47;;;;;;;15.30;10.18;;;2.60;1.00;;;;;;5095177;28;20200;-76
2023/01/26 04:35:15;;;;;;;14.43;8.77;;;2.50;1.00;;;;;;5094888;28;20240;-78
2023/01/26 04:37:43;;;;;;;18.05;10.40;;;2.60;1.00;;;;;;5091023;28;20211;-77
2023/01/26 04:40:13;;;;;;;18.05;10.10;;;2.60;99.90;;;;;;5096295;28;20196;-77
2023/01/26 04:42:41;;;;;;;14.50;8.57;;;2.50;99.90;;;;;;5098230;28;20203;-78
2023/01/26 04:45:10;;;;;;;15.10;9.48;;;2.50;99.90;;;;;;5088766;28;20216;-77
2023/01/26 04:47:38;;;;;;;15.88;9.73;;;2.60;99.90;;;;;;5078490;28;20502;-77
2023/01/26 04:50:08;;;;;;;14.73;9.48;;;2.80;99.90;;;;;;5092496;28;20240;-77
2023/01/26 04:52:36;;;;;;;14.60;8.27;;;2.70;1.00;;;;;;5097567;28;20205;-77
2023/01/26 04:55:05;;;;;;;14.32;8.27;;;2.60;99.90;;;;;;5096928;28;20211;-78
2023/01/26 04:57:34;;;;;;;14.75;7.60;;;2.60;1.00;;;;;;5077049;28;20966;-78
2023/01/26 05:00:03;;;;;;;13.15;7.80;;;2.60;95.30;;;;;;5099127;27;20255;-79
2023/01/26 05:02:31;;;;;;;11.07;7.47;;;2.60;1.00;;;;;;5095021;28;20201;-77
2023/01/26 05:04:59;;;;;;;15.23;9.48;;;2.80;68.40;;;;;;5098834;27;20734;-78
2023/01/26 05:07:27;;;;;;;14.30;8.50;;;2.80;99.90;;;;;;5096522;28;20644;-78
2023/01/26 05:09:56;;;;;;;14.63;8.70;;;2.60;1.00;;;;;;5097395;28;20794;-78
2023/01/26 05:12:33;;;;;;;8.02;6.75;;;2.60;8.10;;;;;;5099891;28;20193;-78
2023/01/26 05:15:02;;;;;;;16.90;8.50;;;2.60;1.00;;;;;;5095975;28;20256;-78
2023/01/26 05:17:31;;;;;;;12.80;6.93;;;2.50;1.00;;;;;;5095670;28;20217;-77
2023/01/26 05:19:59;;;;;;;12.55;7.43;;;2.50;1.00;;;;;;5099276;28;20211;-78
2023/01/26 05:22:27;;;;;;;9.40;7.03;;;2.50;1.00;;;;;;5096327;28;20203;-77
2023/01/26 05:24:55;;;;;;;11.98;7.82;;;2.50;1.00;;;;;;5094341;28;20237;-78
2023/01/26 05:27:23;;;;;;;9.48;6.35;;;2.50;1.00;;;;;;5095960;28;20425;-77
2023/01/26 05:29:53;;;;;;;9.73;6.60;;;2.70;99.90;;;;;;5096633;28;20199;-78
2023/01/26 05:32:23;;;;;;;10.55;7.85;;;2.70;1.00;;;;;;5095692;28;20200;-77
2023/01/26 05:34:51;;;;;;;12.43;8.15;;;2.80;1.00;;;;;;5093064;28;20892;-80
2023/01/26 05:37:19;;;;;;;12.52;7.38;;;2.60;1.00;;;;;;5099122;28;20835;-82
2023/01/26 05:39:48;;;;;;;12.02;7.65;;;2.60;1.00;;;;;;5093846;28;20642;-78
2023/01/26 05:42:16;;;;;;;10.35;7.10;;;2.70;99.90;;;;;;5090727;28;20247;-80
2023/01/26 05:44:44;;;;;;;10.60;6.65;;;2.70;99.90;;;;;;5090715;28;20221;-78
2023/01/26 05:47:12;;;;;;;10.85;7.13;;;2.70;99.90;;;;;;5074998;28;20233;-78
2023/01/26 05:49:42;;;;;;;9.50;6.43;;;2.70;99.90;;;;;;5093725;28;20268;-79
2023/01/26 05:52:11;;;;;;;10.52;6.90;;;2.80;99.90;;;;;;5092654;28;20253;-81
2023/01/26 05:54:39;;;;;;;10.27;6.32;;;2.80;99.90;;;;;;5095333;28;20221;-78
2023/01/26 05:57:07;;;;;;;7.85;6.25;;;2.90;1.00;;;;;;5093588;28;20197;-77
2023/01/26 05:59:35;;;;;;;10.82;7.22;;;2.90;1.00;;;;;;5091039;28;20859;-78
2023/01/26 06:02:04;;;;;;;11.50;7.45;;;2.90;1.00;;;;;;5090712;28;20205;-78
2023/01/26 06:04:32;;;;;;;11.43;6.22;;;2.80;1.00;;;;;;5096280;28;20795;-78
2023/01/26 06:07:02;;;;;;;9.02;6.80;;;2.80;1.00;;;;;;5096309;28;20206;-77
2023/01/26 06:09:30;;;;;;;10.50;6.93;;;2.70;1.00;;;;;;5095149;28;20207;-78
2023/01/26 06:11:58;;;;;;;11.00;7.10;;;2.70;1.00;;;;;;5092713;28;20288;-79
2023/01/26 06:14:26;;;;;;;7.88;6.80;;;2.70;1.00;;;;;;5091188;28;20223;-78
2023/01/26 06:16:55;;;;;;;9.80;6.40;;;2.70;1.00;;;;;;5092642;28;20616;-78
2023/01/26 06:19:24;;;;;;;9.48;6.88;;;2.70;99.90;;;;;;5095562;28;20222;-79
2023/01/26 06:21:52;;;;;;;8.52;6.53;;;2.70;1.00;;;;;;5094369;28;20209;-79
2023/01/26 06:24:23;;;;;;;10.10;6.03;;;2.70;99.90;;;;;;5085989;28;20253;-79
2023/01/26 06:26:51;;;;;;;8.68;6.35;;;2.70;99.90;;;;;;5092566;28;20193;-79
2023/01/26 06:29:19;;;;;;;10.15;6.82;;;2.80;99.90;;;;;;5089932;28;20199;-77
2023/01/26 06:31:47;;;;;;;8.50;6.50;;;2.90;31.40;;;;;;5088953;28;20290;-78
2023/01/26 06:34:16;;;;;;;10.70;7.60;;;2.80;99.90;;;;;;5092732;28;20227;-79
2023/01/26 06:36:44;;;;;;;14.30;9.20;;;2.80;99.90;;;;;;5094831;28;20203;-79
2023/01/26 06:39:13;;;;;;;15.80;10.43;;;2.80;1.00;;;;;;5090955;28;20217;-78
2023/01/26 06:41:44;;;;;;;13.45;8.75;;;2.70;1.00;;;;;;5091744;28;20212;-78
2023/01/26 06:44:12;;;;;;;15.60;8.70;;;2.70;1.00;;;;;;5093374;28;20222;-77
2023/01/26 06:46:40;;;;;;;17.65;9.38;;;2.50;99.90;;;;;;5096652;28;21129;-77
2023/01/26 06:49:09;;;;;;;13.52;8.57;;;2.60;99.90;;;;;;5095891;28;20228;-79
2023/01/26 06:51:47;;;;;;;17.58;9.55;;;2.60;99.90;;;;;;5094692;28;20221;-76
2023/01/26 06:54:15;;;;;;;13.65;9.07;;;2.50;99.90;;;;;;5093070;28;20224;-77
2023/01/26 06:56:45;;;;;;;13.25;8.57;;;2.60;1.00;;;;;;5088343;28;20251;-77
2023/01/26 06:59:13;;;;;;;14.15;10.18;;;2.60;99.90;;;;;;5093155;28;20221;-77
2023/01/26 07:01:46;;;;;;;11.45;7.63;;;2.60;99.90;;;;;;5099379;28;20216;-77
2023/01/26 07:04:14;;;;;;;13.35;8.07;;;2.60;99.90;;;;;;5097079;28;20580;-78
2023/01/26 07:06:42;;;;;;;12.18;8.65;;;2.60;99.90;;;;;;5101786;28;20188;-79
2023/01/26 07:09:11;;;;;;;15.52;8.30;;;2.60;8.80;;;;;;5099974;28;20280;-79
2023/01/26 07:11:39;;;;;;;14.70;8.15;;;2.70;99.90;;;;;;5097334;28;20233;-78
2023/01/26 07:14:09;;;;;;;15.27;9.32;;;2.50;99.90;;;;;;5098761;28;20220;-77
2023/01/26 07:16:37;;;;;;;22.45;12.02;;;2.50;99.90;;;;;;5096986;28;20216;-78
2023/01/26 07:19:05;;;;;;;18.63;10.13;;;2.50;1.00;;;;;;5098028;28;20266;-78
2023/01/26 07:21:34;;;;;;;13.98;9.25;;;2.50;1.00;;;;;;5096703;28;20255;-79
2023/01/26 07:24:02;;;;;;;21.85;10.27;;;2.60;99.90;;;;;;5098940;28;20292;-79
2023/01/26 07:26:30;;;;;;;10.00;7.28;;;2.60;1.00;;;;;;5096984;27;20213;-78
2023/01/26 07:28:58;;;;;;;12.40;8.98;;;2.60;1.00;;;;;;5077734;28;20742;-80
2023/01/26 07:31:28;;;;;;;14.27;8.35;;;2.50;1.00;;;;;;5096955;28;20197;-79
2023/01/26 07:33:56;;;;;;;14.32;9.20;;;2.50;1.00;;;;;;5098919;28;20225;-79
2023/01/26 07:36:24;;;;;;;17.02;9.30;;;2.60;99.90;;;;;;5099056;28;20602;-78
2023/01/26 07:38:52;;;;;;;17.77;11.65;;;2.50;99.90;;;;;;5095024;28;20298;-80
2023/01/26 07:41:20;;;;;;;15.98;9.70;;;2.60;1.00;;;;;;5099637;28;20209;-79
2023/01/26 07:43:50;;;;;;;12.70;8.82;;;2.40;1.00;;;;;;5095673;28;20214;-78
2023/01/26 07:46:18;;;;;;;13.30;8.60;;;2.50;99.90;;;;;;5095241;28;20212;-78
2023/01/26 07:48:48;;;;;;;15.10;9.23;;;2.50;99.90;;;;;;5099383;28;20690;-78
2023/01/26 07:51:17;;;;;;;10.45;7.47;;;2.60;81.50;;;;;;5093366;28;20199;-79
2023/01/26 07:53:48;;;;;;;11.23;6.97;;;2.60;99.90;;;;;;5092344;28;20224;-77
2023/01/26 07:56:19;;;;;;;12.82;7.65;;;2.60;1.00;;;;;;5090155;28;21129;-79
2023/01/26 07:58:51;;;;;;;13.35;7.95;;;2.50;99.90;;;;;;5078553;27;20571;-80
2023/01/26 08:01:20;;;;;;;13.48;7.63;;;2.60;99.90;;;;;;5091880;28;20217;-79
2023/01/26 08:03:50;;;;;;;10.43;8.05;;;2.50;99.90;;;;;;5094151;28;20215;-77
2023/01/26 08:06:19;;;;;;;9.57;6.68;;;2.50;99.90;;;;;;5090014;28;20704;-78
2023/01/26 08:08:50;;;;;;;10.93;7.30;;;2.40;1.00;;;;;;5091832;28;20204;-79
2023/01/26 08:11:21;;;;;;;9.80;6.15;;;2.60;99.90;;;;;;5097718;28;20281;-79
2023/01/26 08:13:49;;;;;;;10.82;7.05;;;2.50;99.90;;;;;;5099050;28;20218;-79
2023/01/26 08:16:18;;;;;;;11.23;6.65;;;2.60;99.90;;;;;;5098003;28;20193;-80
2023/01/26 08:18:49;;;;;;;10.60;6.75;;;2.60;99.90;;;;;;5100287;28;20315;-78
2023/01/26 08:21:19;;;;;;;11.18;7.03;;;2.50;99.90;;;;;;5094230;28;20300;-80
2023/01/26 08:23:49;;;;;;;10.75;7.35;;;2.60;99.90;;;;;;5095402;28;20307;-79
2023/01/26 08:26:19;;;;;;;8.30;6.13;;;2.50;1.00;;;;;;5096703;28;20226;-79
2023/01/26 08:28:47;;;;;;;9.07;6.55;;;2.50;1.00;;;;;;5097868;28;20227;-79
2023/01/26 08:31:18;;;;;;;7.65;6.85;;;2.60;1.40;;;;;;5094701;27;20196;-79
2023/01/26 08:33:50;;;;;;;9.88;6.85;;;2.60;1.00;;;;;;5096553;28;20216;-80
2023/01/26 08:36:19;;;;;;;10.05;6.32;;;2.40;1.00;;;;;;5095897;28;20200;-79
2023/01/26 08:38:50;;;;;;;10.32;6.95;;;2.40;73.70;;;;;;5092503;28;20193;-80
2023/01/26 08:41:19;;;;;;;11.25;7.55;;;2.60;1.00;;;;;;5086376;28;20426;-80
2023/01/26 08:43:48;;;;;;;11.82;8.00;;;2.60;1.00;;;;;;5087076;28;20213;-80
2023/01/26 08:46:17;;;;;;;8.80;7.13;;;2.60;1.00;;;;;;5086226;28;20295;-79
2023/01/26 08:48:46;;;;;;;14.00;8.77;;;2.50;1.00;;;;;;5090116;28;20217;-80
2023/01/26 08:51:15;;;;;;;15.07;8.32;;;2.50;82.50;;;;;;5087531;28;20286;-81
2023/01/26 08:53:44;;;;;;;10.98;7.20;;;2.40;1.00;;;;;;5087382;28;20218;-79
2023/01/26 08:56:14;;;;;;;12.07;7.90;;;2.50;99.90;;;;;;5085034;28;20283;-80
2023/01/26 08:58:43;;;;;;;11.45;6.88;;;2.50;99.90;;;;;;5095438;28;20197;-81
2023/01/26 09:01:13;;;;;;;10.23;7.57;;;2.50;99.90;;;;;;5098450;27;20228;-78
2023/01/26 09:03:42;;;;;;;10.65;7.60;;;2.50;1.00;;;;;;5099147;28;20216;-78
2023/01/26 09:06:13;;;;;;;8.48;6.70;;;2.50;41.20;;;;;;5099658;28;20210;-79
2023/01/26 09:08:43;;;;;;;12.70;6.50;;;2.50;1.00;;;;;;5098211;28;21149;-80
2023/01/26 09:11:12;;;;;;;13.80;7.75;;;2.60;1.00;;;;;;5096746;28;20229;-79
2023/01/26 09:13:41;;;;;;;12.23;7.57;;;2.60;1.00;;;;;;5096374;28;20242;-78
2023/01/26 09:16:17;;;;;;;12.35;7.55;;;2.40;1.00;;;;;;5082875;28;20195;-79
2023/01/26 09:18:49;;;;;;;9.70;7.43;;;2.50;1.00;;;;;;5098535;28;20262;-79
2023/01/26 09:21:18;;;;;;;8.85;6.80;;;2.60;1.00;;;;;;5098262;28;20213;-79
2023/01/26 09:23:48;;;;;;;12.43;7.10;;;2.60;99.90;;;;;;5097440;28;20273;-78
2023/01/26 09:26:16;;;;;;;12.07;7.82;;;2.70;99.90;;;;;;5096001;28;20210;-78
2023/01/26 09:28:44;;;;;;;9.57;6.53;;;2.60;99.90;;;;;;5088738;28;20277;-79
2023/01/26 09:31:13;;;;;;;10.88;6.38;;;2.50;1.00;;;;;;5084385;28;20204;-78
2023/01/26 09:33:41;;;;;;;11.45;7.38;;;2.50;99.90;;;;;;5085200;28;20230;-78
2023/01/26 09:36:12;;;;;;;8.98;6.22;;;2.60;99.90;;;;;;5085248;28;20209;-78
2023/01/26 09:38:40;;;;;;;8.80;6.32;;;2.60;99.90;;;;;;5085833;28;20193;-80
2023/01/26 09:41:22;;;;;;;11.07;6.55;;;2.60;99.90;;;;;;5088802;28;20217;-79
2023/01/26 09:43:53;;;;;;;10.48;6.88;;;2.70;63.00;;;;;;5074712;28;20218;-79
2023/01/26 09:46:23;;;;;;;8.77;6.07;;;2.70;1.00;;;;;;5087470;28;20200;-81
2023/01/26 09:49:05;;;;;;;8.38;7.45;;;2.70;99.90;;;;;;5086506;28;20216;-78
2023/01/26 09:51:37;;;;;;;10.35;6.70;;;2.70;1.00;;;;;;5086829;28;20216;-77
2023/01/26 09:54:15;;;;;;;10.32;6.20;;;2.70;8.40;;;;;;5071715;28;20248;-80
2023/01/26 09:56:46;;;;;;;7.72;5.55;;;2.70;23.00;;;;;;5101963;28;20279;-77
2023/01/26 09:59:28;;;;;;;8.32;5.70;;;2.60;9.50;;;;;;5102222;28;20204;-79
2023/01/26 10:02:02;;;;;;;7.05;5.90;;;2.60;99.90;;;;;;5100964;28;20204;-79
2023/01/26 10:04:35;;;;;;;7.32;5.35;;;2.70;99.90;;;;;;5083203;28;20231;-80
2023/01/26 10:07:09;;;;;;;12.13;6.22;;;2.60;1.00;;;;;;5098091;28;20202;-78
2023/01/26 10:09:39;;;;;;;8.93;6.28;;;2.50;1.00;;;;;;5102191;28;20277;-77
2023/01/26 10:12:16;;;;;;;8.35;5.70;;;2.70;1.00;;;;;;5098996;28;20618;-79
2023/01/26 10:14:49;;;;;;;7.68;5.43;;;2.80;1.00;;;;;;5099093;28;20244;-79
2023/01/26 10:17:25;;;;;;;6.15;5.50;;;2.70;99.90;;;;;;5101071;28;20285;-79
2023/01/26 10:19:57;;;;;;;10.68;6.70;;;2.70;1.00;;;;;;5097964;28;20204;-78
2023/01/26 10:22:31;;;;;;;9.02;5.40;;;2.70;1.00;;;;;;5112266;27;20202;-79
2023/01/26 10:25:00;;;;;;;10.23;6.05;;;2.60;99.90;;;;;;5108439;27;20218;-79
2023/01/26 10:27:29;;;;;;;8.48;5.35;;;2.60;99.90;;;;;;5104712;27;20313;-80
2023/01/26 10:29:58;;;;;;;8.38;5.93;;;2.60;1.00;;;;;;5103319;27;20255;-78
2023/01/26 10:32:26;;;;;;;11.25;6.32;;;2.60;99.90;;;;;;5105758;27;20202;-79
2023/01/26 10:34:54;;;;;;;6.03;5.50;;;2.60;1.00;;;;;;5108576;27;20222;-78
2023/01/26 10:37:26;;;;;;;9.88;6.57;;;2.60;1.00;;;;;;5105565;27;20208;-78
2023/01/26 10:39:59;;;;;;;7.70;5.60;;;2.50;1.00;;;;;;5102775;27;20193;-79
2023/01/26 10:42:31;;;;;;;7.95;5.47;;;2.60;1.00;;;;;;5106566;27;20293;-79
2023/01/26 10:45:01;;;;;;;11.60;6.65;;;2.60;99.90;;;;;;5102365;27;20286;-79
2023/01/26 10:47:30;;;;;;;9.40;6.00;;;2.60;1.00;;;;;;5102737;27;20208;-78
2023/01/26 10:50:20;;;;;;;9.27;6.75;;;2.70;99.90;;;;;;5081829;27;20568;-79
2023/01/26 10:52:59;;;;;;;10.55;7.82;;;2.60;99.90;;;;;;5084436;27;20184;-79
2023/01/26 10:55:29;;;;;;;11.13;6.97;;;2.60;1.00;;;;;;5103321;27;20228;-78
2023/01/26 10:57:59;;;;;;;7.25;6.00;;;2.60;99.90;;;;;;5102793;28;20194;-80
2023/01/26 11:00:29;;;;;;;9.13;7.22;;;2.70;99.90;;;;;;5103120;27;20282;-78
2023/01/26 11:03:04;;;;;;;9.18;6.13;;;2.60;99.90;;;;;;5102153;27;20195;-78
2023/01/26 11:05:33;;;;;;;10.80;7.25;;;2.60;99.90;;;;;;5101599;27;20216;-79
2023/01/26 11:08:02;;;;;;;7.85;6.35;;;2.60;99.90;;;;;;5081710;28;20675;-79
2023/01/26 11:10:32;;;;;;;8.70;5.70;;;2.60;99.90;;;;;;5107337;27;20265;-81
2023/01/26 11:13:15;;;;;;;9.07;6.13;;;2.60;99.90;;;;;;5106551;27;20207;-80
2023/01/26 11:15:46;;;;;;;9.15;6.00;;;2.70;99.90;;;;;;5097528;28;20805;-79
2023/01/26 11:18:26;;;;;;;11.02;6.95;;;2.70;99.90;;;;;;5096820;27;20229;-79
2023/01/26 11:21:00;;;;;;;11.60;6.60;;;2.70;99.90;;;;;;5099215;28;20267;-80
2023/01/26 11:23:40;;;;;;;10.95;7.72;;;2.70;99.90;;;;;;5099033;28;20207;-79
2023/01/26 11:26:38;;;;;;;21.15;11.98;;;2.60;99.90;;;;;;5104443;28;20279;-81
2023/01/26 11:30:05;;;;;;;12.77;8.07;;;2.60;99.90;;;;;;5104866;27;20590;-80
2023/01/26 11:32:42;;;;;;;13.50;7.10;;;2.50;1.00;;;;;;5017200;28;20944;-79
2023/01/26 11:35:20;;;;;;;9.93;6.95;;;2.50;1.00;;;;;;5020335;28;20384;-79
2023/01/26 11:37:51;;;;;;;12.40;7.38;;;2.50;69.00;;;;;;5079226;28;20216;-80
2023/01/26 11:40:30;;;;;;;10.25;6.70;;;2.50;5.80;;;;;;5101024;28;20260;-80
2023/01/26 11:43:20;;;;;;;12.07;6.85;;;2.50;1.00;;;;;;5091072;28;20288;-79
2023/01/26 11:46:03;;;;;;;9.40;6.57;;;2.60;1.00;;;;;;5087856;28;20861;-80
2023/01/26 11:48:45;;;;;;;9.07;7.20;;;2.50;1.00;;;;;;5085839;28;20587;-79
2023/01/26 11:51:25;;;;;;;10.38;6.60;;;2.40;9.20;;;;;;5095634;27;20270;-80
2023/01/26 11:54:10;;;;;;;9.82;6.18;;;2.30;99.90;;;;;;5087555;28;20235;-80
2023/01/26 11:56:46;;;;;;;10.07;6.45;;;2.40;99.90;;;;;;5088654;28;20694;-80
2023/01/26 11:59:20;;;;;;;10.35;6.95;;;2.60;51.20;;;;;;5087521;28;20301;-79
2023/01/26 12:01:58;;;;;;;13.32;7.95;;;2.50;1.00;;;;;;5087730;28;20223;-80
2023/01/26 12:04:27;;;;;;;13.27;7.75;;;2.50;99.90;;;;;;5096408;28;20206;-80
2023/01/26 12:07:02;;;;;;;13.80;7.47;;;2.50;99.90;;;;;;5096060;28;20548;-79
2023/01/26 12:09:37;;;;;;;13.55;7.45;;;2.50;99.90;;;;;;5094715;28;20236;-79
2023/01/26 12:12:12;;;;;;;11.75;7.10;;;2.40;56.10;;;;;;5089387;27;20259;-79
2023/01/26 12:14:48;;;;;;;9.20;7.00;;;2.50;76.30;;;;;;5082576;27;20255;-79
2023/01/26 12:17:27;;;;;;;16.08;8.13;;;2.50;75.10;;;;;;5086356;28;20192;-80
2023/01/26 12:20:04;;;;;;;9.63;6.70;;;2.50;1.00;;;;;;5087116;28;20658;-80
2023/01/26 12:22:36;;;;;;;12.63;7.20;;;2.50;25.50;;;;;;5084708;27;20219;-79
2023/01/26 12:25:22;;;;;;;10.75;7.25;;;2.40;1.00;;;;;;5087681;28;20223;-79
2023/01/26 12:27:56;;;;;;;11.80;7.28;;;2.40;99.90;;;;;;5086364;28;20655;-80
2023/01/26 12:30:34;;;;;;;12.75;8.02;;;2.40;99.90;;;;;;5091656;28;20229;-80
2023/01/26 12:33:04;;;;;;;16.58;7.75;;;2.40;99.90;;;;;;5086900;28;20234;-78
2023/01/26 12:35:45;;;;;;;11.70;7.43;;;2.50;99.90;;;;;;5083885;28;20216;-79
2023/01/26 12:38:18;;;;;;;12.88;7.78;;;2.50;99.90;;;;;;5084300;28;20193;-80
2023/01/26 12:40:58;;;;;;;12.23;6.97;;;2.50;99.90;;;;;;5090538;28;20203;-79
2023/01/26 12:43:47;;;;;;;16.92;7.88;;;2.30;99.90;;;;;;5092886;28;20308;-80
2023/01/26 12:46:17;;;;;;;11.50;8.45;;;2.40;99.90;;;;;;5091674;28;20287;-81
2023/01/26 12:48:50;;;;;;;14.52;7.88;;;2.40;99.90;;;;;;5088312;28;20205;-80
2023/01/26 12:51:23;;;;;;;16.38;9.30;;;2.50;99.90;;;;;;5085975;28;20826;-79
2023/01/26 12:53:57;;;;;;;15.73;9.65;;;2.50;99.90;;;;;;5084039;28;20211;-80
2023/01/26 12:56:31;;;;;;;16.83;7.85;;;2.50;99.90;;;;;;5089227;28;20289;-79
2023/01/26 12:59:06;;;;;;;15.48;7.22;;;2.50;99.90;;;;;;5096888;27;21049;-81
2023/01/26 13:01:39;;;;;;;10.75;7.10;;;2.50;99.90;;;;;;5100224;28;20252;-79
2023/01/26 13:04:12;;;;;;;12.18;7.63;;;2.30;99.90;;;;;;5097536;28;20231;-79
2023/01/26 13:06:41;;;;;;;12.90;7.10;;;2.30;1.00;;;;;;5100892;28;20241;-80
2023/01/26 13:09:22;;;;;;;16.08;7.90;;;2.30;1.00;;;;;;5097218;28;20678;-79
2023/01/26 13:11:52;;;;;;;16.67;7.78;;;2.30;1.00;;;;;;5101734;28;20216;-78
2023/01/26 13:14:33;;;;;;;10.98;7.95;;;2.40;1.00;;;;;;5089823;27;20219;-79
2023/01/26 13:17:38;;;;;;;13.77;8.43;;;2.50;99.90;;;;;;5098716;28;20200;-79
2023/01/26 13:20:37;;;;;;;12.43;8.10;;;2.40;99.90;;;;;;5082394;28;20683;-79
2023/01/26 13:23:40;;;;;;;11.82;8.40;;;2.40;45.30;;;;;;5094974;28;20285;-80
2023/01/26 13:26:34;;;;;;;12.65;7.28;;;2.30;99.90;;;;;;5095007;28;20275;-80
2023/01/26 13:29:32;;;;;;;11.07;6.72;;;2.30;1.00;;;;;;5075628;28;20473;-79
2023/01/26 13:32:16;;;;;;;13.45;8.15;;;2.40;1.00;;;;;;5092385;28;20318;-79
2023/01/26 13:34:52;;;;;;;12.48;7.60;;;2.40;1.00;;;;;;5049249;28;20229;-79
2023/01/26 13:37:28;;;;;;;10.93;6.43;;;2.50;1.00;;;;;;5083879;28;20636;-79
2023/01/26 13:40:00;;;;;;;19.30;8.90;;;2.50;99.90;;;;;;5083103;28;20191;-80
2023/01/26 13:42:36;;;;;;;12.73;7.43;;;2.50;99.90;;;;;;5083706;28;20224;-80
2023/01/26 13:45:16;;;;;;;12.68;6.82;;;2.50;99.90;;;;;;5082470;28;20755;-79
2023/01/26 13:47:49;;;;;;;14.15;8.10;;;2.40;99.90;;;;;;5084635;28;20242;-79
2023/01/26 13:50:29;;;;;;;14.15;8.30;;;2.40;99.90;;;;;;5082768;28;20307;-81
2023/01/26 13:52:59;;;;;;;13.02;7.40;;;2.40;99.90;;;;;;5083315;28;20200;-79
2023/01/26 13:55:30;;;;;;;12.80;7.88;;;2.30;1.00;;;;;;5086386;28;20234;-79